Ana Sayfa
METAR-TAF:

METAR-TAF

Havaalanları :

Sussex County Airport

Georgetown, Delaware, Amerika Birleşik Devletleri

Enlem: 38-41-24N, Boylam: 075-21-45W, yükseklik: 15 m

Güncel hava durumu gözlemi

Rapor saat 16:54 UTC de 55 dakika önce yapıldı.
Rüzgar kuzey/kuzeybatıdan 7 kt, batı ve kuzey arasında değişken
Sıcaklık 6°C
Nem 36%
Basınç 1023 hPa
Görüş mesafesi: 16.1 km
Açık gökyüzü

METAR: KGED 071654Z AUTO 33007KT 280V010 10SM CLR 06/M08 A3021 RMK AO2 SLP231 T00561078

Saat: 12:49 (17:49 UTC)


TAF: eksik

4.000'den fazla havaalanı için hava durumu gözlemleri ve tahminleri (METAR ve TAF raporları).

Kullanılabilir istasyonlar harita üzerinde sarı ve kırmızı noktalarla gösterilir.

İstasyonun adını görmek için fareyi noktanın üzerinde gezdirin.

Sonrasında hava gözlem ve tahminlerini görmek için tıklayın.

Haritayı değiştirmek için: yaklaştırmak için siyah artı işaretli yeşil düğmeye ve uzaklaştırmak için de eksi işaretli düğmeye hızla tıklayın; bitişik haritalar için yeşil okları kullanın.


METAR-TAF: